Polaris — JD2797 — position and weather

sailwx.info

Track history (hours):
 
Tides and Currents Weather Stations Pressure Air Temp Water Temp Dewpoint Dewpoint Depression Visibility Wind Speed Wind Dir Waves Ship Positions

Polaris

Last reported at 2016-Dec-03 08:11 UTC. Time now 2016-Dec-03 15:43 UTC.
Position N 35°27' E 139°40'.

Length 30 m; draft 2.6 m.

Type: Pilot. MMSI: 431000764.

Date/timePositionNaut miles runAvg speedWind from/ knotsBaromVisibWave heightAir tempDewpointWater temp
2016-Dec-03 08:11N 35°27' E 139°40'6 8.9
2016-Dec-03 07:33N 35°25' E 139°46'8 4.0
2016-Dec-03 05:33N 35°17' E 139°44'1110.6
2016-Dec-03 04:33N 35°27' E 139°40'0 0.0
2016-Dec-03 03:33N 35°27' E 139°40'0 0.0
2016-Dec-03 02:33N 35°27' E 139°40'0 0.0
2016-Dec-03 01:33N 35°27' E 139°40'5 4.7
2016-Dec-03 00:34N 35°30' E 139°44'5 4.5
2016-Dec-02 23:34N 35°27' E 139°40'0 0.2
2016-Dec-02 22:33N 35°27' E 139°40'0 0.0
2016-Dec-01 14:33N 35°27' E 139°40'9 9.4
2016-Dec-01 13:33N 35°18' E 139°44'5 5.1
2016-Dec-01 12:33N 35°13' E 139°46'1414.1
2016-Dec-01 11:33N 35°27' E 139°42'2 1.6
2016-Dec-01 10:33N 35°27' E 139°40'0 0.0
2016-Dec-01 09:33N 35°27' E 139°40'0 0.0
2016-Dec-01 08:33N 35°27' E 139°40'0 0.0
2016-Dec-01 07:33N 35°27' E 139°40'0 0.0
2016-Dec-01 06:33N 35°27' E 139°40'0 0.0
2016-Dec-01 05:33N 35°27' E 139°40'0 0.0
2016-Dec-01 04:33N 35°27' E 139°40'0 0.0
2016-Dec-01 03:33N 35°27' E 139°40'0 0.0
2016-Dec-01 02:33N 35°27' E 139°40'0 0.0
2016-Dec-01 01:33N 35°27' E 139°40'0 0.0
2016-Dec-01 00:33N 35°27' E 139°40'0 0.0
2016-Nov-30 23:33N 35°27' E 139°40'0 0.0
2016-Nov-30 22:33N 35°27' E 139°40'0 0.0
2016-Nov-30 21:33N 35°27' E 139°40'0 0.0
2016-Nov-30 20:33N 35°27' E 139°40'0 0.0
2016-Nov-30 19:33N 35°27' E 139°40'0 0.0
2016-Nov-30 18:33N 35°27' E 139°40'0 0.0
2016-Nov-30 17:33N 35°27' E 139°40'2 1.9
2016-Nov-30 16:33N 35°26' E 139°42'1311.8
2016-Nov-30 15:26N 35°13' E 139°46'1011.9
2016-Nov-30 14:33N 35°23' E 139°41'1 1.1
2016-Nov-30 13:34N 35°24' E 139°42'3 3.2
2016-Nov-30 12:33N 35°27' E 139°40'0 0.0
2016-Nov-30 11:33N 35°27' E 139°40'0 0.0
2016-Nov-30 10:33N 35°27' E 139°40'0 0.0
2016-Nov-30 09:33N 35°27' E 139°40'0 0.0
2016-Nov-30 08:33N 35°27' E 139°40'10 9.5
2016-Nov-30 07:33N 35°18' E 139°45'5 3.7
2016-Nov-30 06:16N 35°13' E 139°46'1013.8
2016-Nov-30 05:33N 35°22' E 139°41'  
2016-Nov-27 07:20N 35°27' E 139°40'0 0.0
2016-Nov-27 06:34N 35°27' E 139°40'0 0.0
2016-Nov-27 05:34N 35°27' E 139°40'0 0.0
2016-Nov-27 04:34N 35°27' E 139°40'0 0.0
2016-Nov-27 03:34N 35°27' E 139°40'0 0.0
2016-Nov-27 02:34N 35°27' E 139°40'0 0.0
2016-Nov-27 01:34N 35°27' E 139°40'0 0.0
2016-Nov-27 00:33N 35°27' E 139°40'0 0.0
2016-Nov-26 23:34N 35°27' E 139°40'1211.8
2016-Nov-26 22:33N 35°16' E 139°45'6 5.7
2016-Nov-26 21:34N 35°21' E 139°42'6 6.3
2016-Nov-26 20:33N 35°27' E 139°43'2 2.4
2016-Nov-26 19:33N 35°27' E 139°40'0 0.0
2016-Nov-26 18:33N 35°27' E 139°40'0 0.0
2016-Nov-26 17:33N 35°27' E 139°40'0 0.0
2016-Nov-26 16:33N 35°27' E 139°40'0 0.0
2016-Nov-26 15:33N 35°27' E 139°40'0 0.0
2016-Nov-26 14:33N 35°27' E 139°40'0 0.0
2016-Nov-26 13:33N 35°27' E 139°40'0 0.0
2016-Nov-26 12:33N 35°27' E 139°40'0 0.0
2016-Nov-26 11:33N 35°27' E 139°40'0 0.0
2016-Nov-26 10:33N 35°27' E 139°40'0 0.0
2016-Nov-26 09:33N 35°27' E 139°40'0 0.0
2016-Nov-26 08:33N 35°27' E 139°40'8 7.6
2016-Nov-26 07:33N 35°20' E 139°44'10 9.3
2016-Nov-26 06:28N 35°10' E 139°47'9 9.5
2016-Nov-26 05:33N 35°18' E 139°43'9 8.8
2016-Nov-26 04:33N 35°27' E 139°40'3 0.2
2016-Nov-25 10:33N 35°27' E 139°43'10 1.7
2016-Nov-25 04:32N 35°32' E 139°54'1212.3
2016-Nov-25 03:34N 35°27' E 139°41'1 1.0
2016-Nov-25 02:33N 35°27' E 139°40'0 0.0
2016-Nov-25 01:33N 35°27' E 139°40'  
Track history (hours):
 
Tides and Currents Weather Stations Pressure Air Temp Water Temp Dewpoint Dewpoint Depression Visibility Wind Speed Wind Dir Waves Ship Positions

Polaris

Last reported at 2016-Dec-03 08:11 UTC. Time now 2016-Dec-03 15:43 UTC.
Position N 35°27' E 139°40'.

Length 30 m; draft 2.6 m.

Type: Pilot. MMSI: 431000764.

Date/timePositionNaut miles runAvg speedWind from/ knotsBaromVisibWave heightAir tempDewpointWater temp
2016-Dec-03 08:11N 35°27' E 139°40'6 8.9
2016-Dec-03 07:33N 35°25' E 139°46'8 4.0
2016-Dec-03 05:33N 35°17' E 139°44'1110.6
2016-Dec-03 04:33N 35°27' E 139°40'0 0.0
2016-Dec-03 03:33N 35°27' E 139°40'0 0.0
2016-Dec-03 02:33N 35°27' E 139°40'0 0.0
2016-Dec-03 01:33N 35°27' E 139°40'5 4.7
2016-Dec-03 00:34N 35°30' E 139°44'5 4.5
2016-Dec-02 23:34N 35°27' E 139°40'0 0.2
2016-Dec-02 22:33N 35°27' E 139°40'0 0.0
2016-Dec-01 14:33N 35°27' E 139°40'9 9.4
2016-Dec-01 13:33N 35°18' E 139°44'5 5.1
2016-Dec-01 12:33N 35°13' E 139°46'1414.1
2016-Dec-01 11:33N 35°27' E 139°42'2 1.6
2016-Dec-01 10:33N 35°27' E 139°40'0 0.0
2016-Dec-01 09:33N 35°27' E 139°40'0 0.0
2016-Dec-01 08:33N 35°27' E 139°40'0 0.0
2016-Dec-01 07:33N 35°27' E 139°40'0 0.0
2016-Dec-01 06:33N 35°27' E 139°40'0 0.0
2016-Dec-01 05:33N 35°27' E 139°40'0 0.0
2016-Dec-01 04:33N 35°27' E 139°40'0 0.0
2016-Dec-01 03:33N 35°27' E 139°40'0 0.0
2016-Dec-01 02:33N 35°27' E 139°40'0 0.0
2016-Dec-01 01:33N 35°27' E 139°40'0 0.0
2016-Dec-01 00:33N 35°27' E 139°40'0 0.0
2016-Nov-30 23:33N 35°27' E 139°40'0 0.0
2016-Nov-30 22:33N 35°27' E 139°40'0 0.0
2016-Nov-30 21:33N 35°27' E 139°40'0 0.0
2016-Nov-30 20:33N 35°27' E 139°40'0 0.0
2016-Nov-30 19:33N 35°27' E 139°40'0 0.0
2016-Nov-30 18:33N 35°27' E 139°40'0 0.0
2016-Nov-30 17:33N 35°27' E 139°40'2 1.9
2016-Nov-30 16:33N 35°26' E 139°42'1311.8
2016-Nov-30 15:26N 35°13' E 139°46'1011.9
2016-Nov-30 14:33N 35°23' E 139°41'1 1.1
2016-Nov-30 13:34N 35°24' E 139°42'3 3.2
2016-Nov-30 12:33N 35°27' E 139°40'0 0.0
2016-Nov-30 11:33N 35°27' E 139°40'0 0.0
2016-Nov-30 10:33N 35°27' E 139°40'0 0.0
2016-Nov-30 09:33N 35°27' E 139°40'0 0.0
2016-Nov-30 08:33N 35°27' E 139°40'10 9.5
2016-Nov-30 07:33N 35°18' E 139°45'5 3.7
2016-Nov-30 06:16N 35°13' E 139°46'1013.8
2016-Nov-30 05:33N 35°22' E 139°41'  
2016-Nov-27 07:20N 35°27' E 139°40'0 0.0
2016-Nov-27 06:34N 35°27' E 139°40'0 0.0
2016-Nov-27 05:34N 35°27' E 139°40'0 0.0
2016-Nov-27 04:34N 35°27' E 139°40'0 0.0
2016-Nov-27 03:34N 35°27' E 139°40'0 0.0
2016-Nov-27 02:34N 35°27' E 139°40'0 0.0
2016-Nov-27 01:34N 35°27' E 139°40'0 0.0
2016-Nov-27 00:33N 35°27' E 139°40'0 0.0
2016-Nov-26 23:34N 35°27' E 139°40'1211.8
2016-Nov-26 22:33N 35°16' E 139°45'6 5.7
2016-Nov-26 21:34N 35°21' E 139°42'6 6.3
2016-Nov-26 20:33N 35°27' E 139°43'2 2.4
2016-Nov-26 19:33N 35°27' E 139°40'0 0.0
2016-Nov-26 18:33N 35°27' E 139°40'0 0.0
2016-Nov-26 17:33N 35°27' E 139°40'0 0.0
2016-Nov-26 16:33N 35°27' E 139°40'0 0.0
2016-Nov-26 15:33N 35°27' E 139°40'0 0.0
2016-Nov-26 14:33N 35°27' E 139°40'0 0.0
2016-Nov-26 13:33N 35°27' E 139°40'0 0.0
2016-Nov-26 12:33N 35°27' E 139°40'0 0.0
2016-Nov-26 11:33N 35°27' E 139°40'0 0.0
2016-Nov-26 10:33N 35°27' E 139°40'0 0.0
2016-Nov-26 09:33N 35°27' E 139°40'0 0.0
2016-Nov-26 08:33N 35°27' E 139°40'8 7.6
2016-Nov-26 07:33N 35°20' E 139°44'10 9.3
2016-Nov-26 06:28N 35°10' E 139°47'9 9.5
2016-Nov-26 05:33N 35°18' E 139°43'9 8.8
2016-Nov-26 04:33N 35°27' E 139°40'3 0.2
2016-Nov-25 10:33N 35°27' E 139°43'10 1.7
2016-Nov-25 04:32N 35°32' E 139°54'1212.3
2016-Nov-25 03:34N 35°27' E 139°41'1 1.0
2016-Nov-25 02:33N 35°27' E 139°40'0 0.0
2016-Nov-25 01:33N 35°27' E 139°40'  

Dump ship's entire track history